Impacts METAR Board INFO
IDs:

KMEM - Memphis Intl, TN, US

Updated at: 1335 UTC 25 Feb 2018
Potential Impact None Slight Moderate High
Time25/01Z 25/02Z 25/03Z 25/04Z 25/05Z 25/06Z 25/07Z 25/08Z 25/09Z 25/10Z 25/11Z 25/12Z 25/13Z
VIS7 5 4 6 7 7 10 10 10 10 10 10 10
CIG70 36 55 95 80 17 85 19 240 220 200 200 200
CoverOVCOVCOVCOVCOVCOVCOVCOVCOVCOVCOVCOVCBKN
FltCatVFRMVFRMVFRVFRVFRMVFRVFRMVFRVFRVFRVFRVFRVFR
WX---RA BRRA BR-RA BR-RA-RA--------------
WDir190270240200220230230290330320310300330
WSpd15 12 10 7 5 11 6 8 12 9 6 5 4
WGst21 22 17 -- -- -- -- -- 21 -- -- -- --
Raw hourly METARs
KMEM 250054Z 19015G21KT 7SM FEW022 BKN070 BKN110 OVC250 22/18 A2978 RMK AO2 LTG DSNT W-N RAB10E44 SLP082 CB DSNT W-NW MOV NE P0000 T02220183
KMEM 250204Z 27012G22KT 5SM -RA BR FEW007 BKN036 BKN070 OVC130 16/13 A2986 RMK AO2 PK WND 28026/0155 LTG DSNT NE TSE02 CB DSNT NE MOV E P0003 T01560133 $
KMEM 250254Z 24010G17KT 4SM RA BR FEW034 BKN055 OVC070 13/12 A2989 RMK AO2 PK WND 28026/0155 TSE02 SLP119 P0021 60065 T01330122 53040 $
KMEM 250354Z 20007KT 6SM -RA BR SCT043 OVC095 13/12 A2988 RMK AO2 SLP117 P0023 T01280122 $
KMEM 250454Z 22005KT 7SM -RA SCT017 BKN080 OVC120 13/12 A2991 RMK AO2 SLP125 P0002 T01280117 $
KMEM 250554Z 23011KT 7SM -RA BKN017 OVC100 13/12 A2995 RMK AO2 SLP141 P0001 60091 T01280117 10228 20128 402390128 53021 $
KMEM 250654Z 23006KT 10SM FEW014 BKN085 OVC100 13/12 A2997 RMK AO2 RAE20 SLP145 P0000 T01280122 $
KMEM 250803Z 29008KT 10SM BKN019 OVC120 13/12 A2997 RMK AO2 T01330122 $
KMEM 250854Z 33012G21KT 10SM SCT019 OVC240 11/08 A2999 RMK AO2 SLP154 60000 T01110083 51009 $
KMEM 250954Z 32009KT 10SM OVC220 09/05 A3002 RMK AO2 SLP162 T00940050 $
KMEM 251054Z 31006KT 10SM OVC200 08/04 A3005 RMK AO2 SLP175 T00830039 $
KMEM 251154Z 30005KT 10SM OVC200 08/04 A3010 RMK AO2 SLP190 60000 70094 T00780044 10133 20078 53034 $
KMEM 251254Z 33004KT 10SM BKN200 08/04 A3011 RMK AO2 SLP194 T00780044 $